Buffalo, Indiana
Current Conditions -  °F | °C
As of 12:35 PM on Wednesday 26 Nov 2014 (Local Time) from KMCX Reporting Station
Overcast Overcast  
Wind Chill: 28°   Ceiling: 1600
Heat Index: 28°   Visibility: 10mi
Dew Point: 22°   Wind: 3mph
Humidity: 79%   Direction: 110°ESE
Pressure: 30.12"   Gusts: NA
Location:  40.88°N, 86.75°W
Report Text: KMCX 261735Z AUTO 11003KT 10SM OVC016 M02/M06 A3012 RMK AO2 T10251057
Loading
Personal Weather Stations






























Interactive Weather Map New forecast layout! Learn more

10-Day Weather Forecast

Advertisements
Track Severe Weather on mobile